Time;durP1;ratioP1;P1;durP2;ratioP2;P2;SDS_P1;SDS_P2;PMS_P1;PMS_P2;Temp;Humidity;BMP_temperature;BMP_pressure;BME280_temperature;BME280_humidity;BME280_pressure;Samples;Min_cycle;Max_cycle;Signal;HPM_P1;HPM_P2
2022/10/22 00:01:36;;;;;;;;;;;13.30;97.40;;;;;;4988483;28;19964;-67
2022/10/22 00:04:02;;;;;;;;;;;13.30;97.40;;;;;;5008470;28;19914;-67
2022/10/22 00:06:27;;;;;;;;;;;13.20;97.30;;;;;;4999442;28;19914;-67
2022/10/22 00:08:53;;;;;;;;;;;13.20;97.30;;;;;;4988060;28;19918;-68
2022/10/22 00:11:19;;;;;;;;;;;13.20;97.30;;;;;;4988145;28;20516;-67
2022/10/22 00:13:45;;;;;;;;;;;13.20;97.30;;;;;;4988224;28;19976;-67
2022/10/22 00:16:11;;;;;;;;;;;13.20;97.30;;;;;;4988093;28;19913;-67
2022/10/22 00:18:36;;;;;;;;;;;13.20;97.30;;;;;;4979741;28;19921;-67
2022/10/22 00:21:02;;;;;;;;;;;13.20;97.40;;;;;;4968223;28;19922;-67
2022/10/22 00:23:27;;;;;;;;;;;13.30;97.30;;;;;;4967046;28;19921;-67
2022/10/22 00:25:53;;;;;;;;;;;13.20;97.30;;;;;;4970874;28;19922;-67
2022/10/22 00:28:18;;;;;;;;;;;13.20;97.30;;;;;;4987948;28;19917;-67
2022/10/22 00:30:44;;;;;;;;;;;13.20;97.30;;;;;;4987900;28;19921;-67
2022/10/22 00:33:09;;;;;;;;;;;13.20;97.30;;;;;;5000638;28;20011;-67
2022/10/22 00:35:35;;;;;;;;;;;13.20;97.30;;;;;;5007677;28;20416;-67
2022/10/22 00:38:01;;;;;;;;;;;13.20;97.30;;;;;;5007808;28;19917;-67
2022/10/22 00:40:26;;;;;;;;;;;13.20;97.30;;;;;;5007325;28;19917;-67
2022/10/22 00:42:52;;;;;;;;;;;13.20;97.40;;;;;;5000763;28;20294;-67
2022/10/22 00:45:19;;;;;;;;;;;13.20;97.30;;;;;;4987251;28;19924;-67
2022/10/22 00:47:51;;;;;;;;;;;13.20;97.30;;;;;;4986388;28;19917;-67
2022/10/22 00:50:23;;;;;;;;;;;13.20;97.30;;;;;;4978842;28;19936;-67
2022/10/22 00:52:49;;;;;;;;;;;13.20;97.30;;;;;;4986023;28;19988;-67
2022/10/22 00:55:14;;;;;;;;;;;13.20;97.30;;;;;;4987231;28;20223;-67
2022/10/22 00:57:40;;;;;;;;;;;13.20;97.30;;;;;;4987463;28;19914;-67
2022/10/22 01:00:06;;;;;;;;;;;13.20;97.30;;;;;;4985529;28;19922;-67
2022/10/22 01:02:32;;;;;;;;;;;13.20;97.30;;;;;;4994476;28;19983;-67
2022/10/22 01:04:57;;;;;;;;;;;13.20;97.30;;;;;;5006883;28;20382;-67
2022/10/22 01:07:23;;;;;;;;;;;13.20;97.30;;;;;;5006671;28;20290;-67
2022/10/22 01:09:57;;;;;;;;;;;13.20;97.30;;;;;;5006404;28;20020;-67
2022/10/22 01:12:31;;;;;;;;;;;13.20;97.30;;;;;;5006912;28;20326;-67
2022/10/22 01:14:59;;;;;;;;;;;13.20;97.30;;;;;;5006802;28;19953;-67
2022/10/22 01:17:31;;;;;;;;;;;13.20;97.20;;;;;;4989644;28;19972;-67
2022/10/22 01:19:57;;;;;;;;;;;13.20;97.30;;;;;;4986538;28;20028;-67
2022/10/22 01:22:31;;;;;;;;;;;13.20;97.30;;;;;;4987302;28;20050;-67
2022/10/22 01:25:06;;;;;;;;;;;13.20;97.30;;;;;;4986536;28;19921;-67
2022/10/22 01:27:38;;;;;;;;;;;13.10;97.20;;;;;;4987080;28;19914;-67
2022/10/22 01:30:07;;;;;;;;;;;13.10;97.20;;;;;;5001840;28;20533;-67
2022/10/22 01:32:52;;;;;;;;;;;13.10;97.30;;;;;;4993628;28;19914;-67
2022/10/22 01:35:21;;;;;;;;;;;13.10;97.30;;;;;;4975397;28;20286;-67
2022/10/22 01:37:49;;;;;;;;;;;13.10;97.30;;;;;;4986651;28;20416;-67
2022/10/22 01:40:15;;;;;;;;;;;13.10;97.30;;;;;;4986530;28;20333;-67
2022/10/22 01:42:41;;;;;;;;;;;13.20;97.30;;;;;;4986962;28;19917;-67
2022/10/22 01:45:13;;;;;;;;;;;13.10;97.30;;;;;;4986795;28;19987;-67
2022/10/22 01:47:39;;;;;;;;;;;13.10;97.20;;;;;;4985792;28;19914;-67
2022/10/22 01:50:23;;;;;;;;;;;13.10;97.20;;;;;;4984383;28;20342;-67
2022/10/22 01:52:59;;;;;;;;;;;13.10;97.20;;;;;;4986381;28;19921;-67
2022/10/22 01:55:40;;;;;;;;;;;13.10;97.20;;;;;;4986349;28;20677;-67
2022/10/22 01:58:31;;;;;;;;;;;13.10;97.20;;;;;;5004686;28;19914;-67
2022/10/22 02:01:01;;;;;;;;;;;13.10;97.20;;;;;;4982469;28;19917;-67
2022/10/22 02:03:32;;;;;;;;;;;13.10;97.20;;;;;;5001019;28;20030;-67
2022/10/22 02:06:03;;;;;;;;;;;13.10;97.20;;;;;;5003733;28;19925;-67
2022/10/22 02:08:31;;;;;;;;;;;13.10;97.20;;;;;;4966921;28;19989;-67
2022/10/22 02:10:57;;;;;;;;;;;13.10;97.20;;;;;;4966202;28;19922;-67
2022/10/22 02:13:24;;;;;;;;;;;13.10;97.20;;;;;;4966093;28;19914;-67
2022/10/22 02:15:51;;;;;;;;;;;13.10;97.20;;;;;;4966163;28;20052;-67
2022/10/22 02:18:18;;;;;;;;;;;13.10;97.20;;;;;;4971171;28;19946;-67
2022/10/22 02:20:43;;;;;;;;;;;13.10;97.20;;;;;;4965788;28;19926;-67
2022/10/22 02:23:10;;;;;;;;;;;13.10;97.20;;;;;;4969832;28;19996;-67
2022/10/22 02:25:37;;;;;;;;;;;13.10;97.20;;;;;;4985976;28;20440;-67
2022/10/22 02:28:06;;;;;;;;;;;13.10;97.20;;;;;;5003971;28;19925;-67
2022/10/22 02:30:32;;;;;;;;;;;13.10;97.20;;;;;;5005218;28;19924;-67
2022/10/22 02:33:16;;;;;;;;;;;13.00;97.20;;;;;;5005330;28;19920;-67
2022/10/22 02:35:42;;;;;;;;;;;13.00;97.10;;;;;;5005301;28;19913;-67
2022/10/22 02:38:08;;;;;;;;;;;13.10;97.20;;;;;;5005822;28;20382;-67
2022/10/22 02:40:34;;;;;;;;;;;13.00;97.20;;;;;;4992618;28;19975;-67
2022/10/22 02:42:59;;;;;;;;;;;13.00;97.20;;;;;;4985679;28;19917;-67
2022/10/22 02:45:25;;;;;;;;;;;13.00;97.20;;;;;;4985653;28;19913;-67
2022/10/22 02:47:50;;;;;;;;;;;13.10;97.50;;;;;;4983156;28;19918;-67
2022/10/22 02:50:16;;;;;;;;;;;13.00;97.10;;;;;;4976229;28;19914;-67
2022/10/22 02:52:41;;;;;;;;;;;13.00;97.20;;;;;;4985333;28;19914;-67
2022/10/22 02:55:07;;;;;;;;;;;13.00;97.10;;;;;;4985618;28;19921;-67
2022/10/22 02:57:33;;;;;;;;;;;13.00;97.20;;;;;;4984338;28;19914;-67
2022/10/22 02:59:58;;;;;;;;;;;13.00;97.20;;;;;;4985037;28;20483;-67
2022/10/22 03:02:24;;;;;;;;;;;13.00;97.20;;;;;;4991564;28;19914;-67
2022/10/22 03:04:49;;;;;;;;;;;13.00;97.20;;;;;;4981381;28;19914;-67
2022/10/22 03:07:15;;;;;;;;;;;13.00;97.10;;;;;;4997409;28;19918;-67
2022/10/22 03:09:40;;;;;;;;;;;13.00;97.50;;;;;;4999310;28;19925;-67
2022/10/22 03:12:07;;;;;;;;;;;13.00;97.10;;;;;;4998976;28;19918;-67
2022/10/22 03:14:33;;;;;;;;;;;13.10;97.20;;;;;;4985089;28;19922;-67
2022/10/22 03:16:58;;;;;;;;;;;13.00;97.10;;;;;;4985414;28;19917;-67
2022/10/22 03:19:24;;;;;;;;;;;13.00;97.10;;;;;;4973583;28;20477;-67
2022/10/22 03:21:52;;;;;;;;;;;13.00;97.10;;;;;;4969728;28;19914;-67
2022/10/22 03:24:20;;;;;;;;;;;13.00;97.20;;;;;;4970224;28;19922;-67
2022/10/22 03:26:46;;;;;;;;;;;13.00;97.20;;;;;;4980467;28;19968;-67
2022/10/22 03:29:13;;;;;;;;;;;13.00;97.40;;;;;;4994132;28;19918;-66
2022/10/22 03:31:38;;;;;;;;;;;13.00;97.10;;;;;;4999282;28;19918;-67
2022/10/22 03:34:04;;;;;;;;;;;13.00;97.10;;;;;;5008218;28;19921;-67
2022/10/22 03:36:30;;;;;;;;;;;13.00;97.10;;;;;;5006965;28;19952;-67
2022/10/22 03:38:55;;;;;;;;;;;13.00;97.10;;;;;;5008291;28;19992;-68
2022/10/22 03:41:21;;;;;;;;;;;13.00;97.10;;;;;;5006385;28;19964;-67
2022/10/22 03:43:50;;;;;;;;;;;12.90;97.10;;;;;;4988182;28;19953;-66
2022/10/22 03:46:15;;;;;;;;;;;12.90;97.10;;;;;;4987768;28;19920;-68
2022/10/22 03:48:41;;;;;;;;;;;12.90;97.20;;;;;;4979104;28;20395;-67
2022/10/22 03:51:06;;;;;;;;;;;13.00;97.20;;;;;;4986323;28;19913;-67
2022/10/22 03:53:32;;;;;;;;;;;12.90;97.10;;;;;;4988755;28;20393;-67
2022/10/22 03:55:57;;;;;;;;;;;12.90;97.20;;;;;;4989229;28;19913;-67
2022/10/22 03:58:23;;;;;;;;;;;12.90;97.10;;;;;;5006786;28;19952;-67
2022/10/22 04:00:48;;;;;;;;;;;12.90;97.10;;;;;;5007672;28;19925;-67
2022/10/22 04:03:14;;;;;;;;;;;12.90;97.10;;;;;;4995112;28;20366;-67
2022/10/22 04:05:39;;;;;;;;;;;12.90;97.10;;;;;;4988280;28;19961;-67
2022/10/22 04:08:05;;;;;;;;;;;12.90;97.10;;;;;;4987389;28;20005;-67
2022/10/22 04:10:30;;;;;;;;;;;12.90;97.10;;;;;;4987802;28;20016;-67
2022/10/22 04:12:56;;;;;;;;;;;12.90;97.10;;;;;;4986918;28;19936;-67
2022/10/22 04:15:21;;;;;;;;;;;12.90;97.10;;;;;;4987234;28;19918;-67
2022/10/22 04:17:47;;;;;;;;;;;12.90;97.20;;;;;;4987105;28;19945;-66
2022/10/22 04:20:12;;;;;;;;;;;12.90;97.10;;;;;;4986576;28;19921;-67
2022/10/22 04:22:38;;;;;;;;;;;12.90;97.10;;;;;;4986562;28;19925;-67
2022/10/22 04:25:04;;;;;;;;;;;12.90;97.10;;;;;;4986731;28;20545;-67
2022/10/22 04:27:30;;;;;;;;;;;12.90;97.10;;;;;;4989329;28;20394;-67
2022/10/22 04:29:55;;;;;;;;;;;12.90;97.10;;;;;;4987221;28;19920;-67
2022/10/22 04:32:21;;;;;;;;;;;12.90;97.10;;;;;;4992686;28;19918;-67
2022/10/22 04:34:46;;;;;;;;;;;12.90;97.20;;;;;;5006684;28;20438;-67
2022/10/22 04:37:11;;;;;;;;;;;12.90;97.10;;;;;;4997609;28;20012;-67
2022/10/22 04:39:37;;;;;;;;;;;12.90;97.10;;;;;;4985857;28;19924;-67
2022/10/22 04:42:03;;;;;;;;;;;12.90;97.10;;;;;;4987015;28;20735;-67
2022/10/22 04:44:28;;;;;;;;;;;12.90;97.10;;;;;;4987083;28;19917;-67
2022/10/22 04:46:54;;;;;;;;;;;12.90;97.10;;;;;;4987283;28;19937;-67
2022/10/22 04:49:19;;;;;;;;;;;12.90;97.10;;;;;;4975601;28;20152;-67
2022/10/22 04:51:45;;;;;;;;;;;12.90;97.10;;;;;;4984798;28;19921;-67
2022/10/22 04:54:10;;;;;;;;;;;12.90;97.10;;;;;;4986268;28;20577;-67
2022/10/22 04:56:36;;;;;;;;;;;12.90;97.10;;;;;;4992521;28;19970;-67
2022/10/22 04:59:03;;;;;;;;;;;12.90;97.10;;;;;;5006276;28;19952;-67
2022/10/22 05:01:33;;;;;;;;;;;12.90;97.10;;;;;;5005741;28;19925;-67
2022/10/22 05:03:59;;;;;;;;;;;12.90;97.10;;;;;;5005947;28;19921;-67
2022/10/22 05:06:25;;;;;;;;;;;12.90;97.10;;;;;;5005914;28;19936;-67
2022/10/22 05:08:52;;;;;;;;;;;12.90;97.10;;;;;;4976663;28;840067;-67
2022/10/22 05:11:19;;;;;;;;;;;12.90;97.10;;;;;;4990488;28;20635;-69
2022/10/22 05:13:44;;;;;;;;;;;12.90;97.10;;;;;;4987232;28;19949;-66
2022/10/22 05:16:10;;;;;;;;;;;12.90;97.10;;;;;;4986960;28;19964;-67
2022/10/22 05:18:36;;;;;;;;;;;12.80;97.10;;;;;;4978747;28;19914;-67
2022/10/22 05:21:03;;;;;;;;;;;12.90;97.10;;;;;;4966968;28;19929;-67
2022/10/22 05:23:28;;;;;;;;;;;12.90;97.10;;;;;;4967533;28;19929;-68
2022/10/22 05:25:54;;;;;;;;;;;12.80;97.10;;;;;;4968418;28;19925;-68
2022/10/22 05:28:19;;;;;;;;;;;12.80;97.10;;;;;;4992093;28;20391;-67
2022/10/22 05:30:54;;;;;;;;;;;12.80;97.10;;;;;;4986621;28;19949;-67
2022/10/22 05:33:21;;;;;;;;;;;12.90;97.10;;;;;;5000792;28;19917;-67
2022/10/22 05:35:47;;;;;;;;;;;12.90;97.10;;;;;;4995253;28;20307;-68
2022/10/22 05:38:13;;;;;;;;;;;12.80;97.10;;;;;;4987119;28;20326;-67
2022/10/22 05:40:38;;;;;;;;;;;12.80;97.10;;;;;;4986049;28;19968;-67
2022/10/22 05:43:04;;;;;;;;;;;12.80;97.00;;;;;;4986532;28;20020;-68
2022/10/22 05:45:29;;;;;;;;;;;12.80;97.10;;;;;;4986289;28;19925;-68
2022/10/22 05:47:55;;;;;;;;;;;12.80;97.10;;;;;;4983498;28;20020;-67
2022/10/22 05:50:20;;;;;;;;;;;12.80;97.10;;;;;;4977921;28;20723;-67
2022/10/22 05:52:45;;;;;;;;;;;12.80;97.10;;;;;;4985203;28;19914;-68
2022/10/22 05:55:11;;;;;;;;;;;12.80;97.10;;;;;;4984856;28;19918;-67
2022/10/22 05:57:38;;;;;;;;;;;12.80;97.10;;;;;;4989803;28;19917;-67
2022/10/22 06:00:03;;;;;;;;;;;12.80;97.10;;;;;;4986028;28;20547;-67
2022/10/22 06:02:29;;;;;;;;;;;12.80;97.10;;;;;;4993255;28;19925;-68
2022/10/22 06:04:54;;;;;;;;;;;12.80;97.10;;;;;;5005824;28;19913;-67
2022/10/22 06:07:20;;;;;;;;;;;12.80;97.10;;;;;;4995663;28;19918;-67
2022/10/22 06:09:49;;;;;;;;;;;12.80;97.10;;;;;;4984829;28;19929;-67
2022/10/22 06:12:14;;;;;;;;;;;12.80;97.10;;;;;;4969243;28;19964;-67
2022/10/22 06:14:40;;;;;;;;;;;12.80;97.10;;;;;;4979852;28;20314;-68
2022/10/22 06:17:05;;;;;;;;;;;12.80;97.10;;;;;;4986169;28;19971;-67
2022/10/22 06:19:31;;;;;;;;;;;12.80;97.10;;;;;;4969828;28;19914;-67
2022/10/22 06:21:56;;;;;;;;;;;12.80;97.10;;;;;;4966577;28;20472;-68
2022/10/22 06:24:22;;;;;;;;;;;12.80;97.10;;;;;;4966726;28;19967;-67
2022/10/22 06:26:51;;;;;;;;;;;12.80;97.20;;;;;;4980221;28;19914;-67
2022/10/22 06:29:16;;;;;;;;;;;12.70;97.00;;;;;;5005379;28;20577;-68
2022/10/22 06:31:42;;;;;;;;;;;12.70;97.00;;;;;;4990304;28;19945;-68
2022/10/22 06:34:10;;;;;;;;;;;12.80;97.10;;;;;;5005574;28;20259;-68
2022/10/22 06:36:35;;;;;;;;;;;12.70;97.00;;;;;;5005286;28;20350;-67
2022/10/22 06:39:02;;;;;;;;;;;12.70;97.10;;;;;;5005217;28;19971;-67
2022/10/22 06:41:27;;;;;;;;;;;12.70;97.10;;;;;;5004811;28;19918;-67
2022/10/22 06:43:54;;;;;;;;;;;12.80;97.10;;;;;;5005192;28;19920;-69
2022/10/22 06:46:20;;;;;;;;;;;12.70;97.00;;;;;;5004816;28;19951;-68
2022/10/22 06:48:50;;;;;;;;;;;12.80;97.10;;;;;;4978025;28;19950;-69
2022/10/22 06:51:15;;;;;;;;;;;12.70;97.00;;;;;;4984514;28;19937;-67
2022/10/22 06:53:41;;;;;;;;;;;12.70;97.00;;;;;;4985618;28;19924;-68
2022/10/22 06:56:07;;;;;;;;;;;12.80;97.00;;;;;;4987271;28;19920;-68
2022/10/22 06:58:33;;;;;;;;;;;12.80;97.00;;;;;;5004552;28;19959;-68
2022/10/22 07:01:06;;;;;;;;;;;12.80;97.00;;;;;;5004799;28;19917;-68
2022/10/22 07:03:31;;;;;;;;;;;12.80;96.90;;;;;;5003747;28;19917;-67
2022/10/22 07:06:00;;;;;;;;;;;12.80;96.90;;;;;;4985676;28;19914;-67
2022/10/22 07:08:26;;;;;;;;;;;12.80;96.90;;;;;;4985836;28;20001;-67
2022/10/22 07:10:51;;;;;;;;;;;12.80;97.00;;;;;;4985091;28;20334;-67
2022/10/22 07:13:17;;;;;;;;;;;12.90;97.20;;;;;;4985758;28;20474;-67
2022/10/22 07:15:42;;;;;;;;;;;12.90;96.90;;;;;;4985093;28;19921;-67
2022/10/22 07:18:08;;;;;;;;;;;12.90;97.00;;;;;;4980545;28;20371;-67
2022/10/22 07:20:36;;;;;;;;;;;12.90;97.00;;;;;;4965659;28;19925;-67
2022/10/22 07:23:02;;;;;;;;;;;12.90;97.00;;;;;;4966022;28;19928;-67
2022/10/22 07:25:27;;;;;;;;;;;12.90;97.00;;;;;;4980663;28;19918;-67
2022/10/22 07:27:53;;;;;;;;;;;12.90;97.00;;;;;;5001670;28;19913;-67
2022/10/22 07:30:18;;;;;;;;;;;12.90;97.00;;;;;;5004899;28;20255;-67
2022/10/22 07:32:43;;;;;;;;;;;12.90;97.10;;;;;;5005152;28;19999;-67
2022/10/22 07:35:09;;;;;;;;;;;12.90;97.00;;;;;;5005173;28;20730;-67
2022/10/22 07:37:34;;;;;;;;;;;12.90;97.00;;;;;;5005006;28;20000;-67
2022/10/22 07:40:00;;;;;;;;;;;13.00;97.10;;;;;;4986427;28;19953;-67
2022/10/22 07:42:25;;;;;;;;;;;13.00;97.00;;;;;;4984987;28;20457;-67
2022/10/22 07:44:51;;;;;;;;;;;13.00;97.00;;;;;;4984956;28;19918;-68
2022/10/22 07:47:16;;;;;;;;;;;13.00;97.00;;;;;;4984681;28;19941;-67
2022/10/22 07:49:42;;;;;;;;;;;13.00;96.90;;;;;;4973729;28;19928;-67
2022/10/22 07:52:07;;;;;;;;;;;13.00;97.00;;;;;;4985470;28;19913;-67
2022/10/22 07:54:33;;;;;;;;;;;13.10;97.00;;;;;;4985081;28;20489;-67
2022/10/22 07:57:01;;;;;;;;;;;13.10;97.20;;;;;;4992087;28;20052;-68
2022/10/22 07:59:26;;;;;;;;;;;13.10;97.20;;;;;;4985334;28;19992;-67
2022/10/22 08:01:52;;;;;;;;;;;13.10;97.20;;;;;;4986666;28;19944;-67
2022/10/22 08:04:17;;;;;;;;;;;13.20;97.20;;;;;;5007219;28;19945;-67
2022/10/22 08:06:43;;;;;;;;;;;13.20;97.20;;;;;;5006214;28;19956;-68
2022/10/22 08:09:08;;;;;;;;;;;13.20;97.20;;;;;;5008110;28;20027;-67
2022/10/22 08:11:34;;;;;;;;;;;13.20;97.20;;;;;;5007632;28;19920;-67
2022/10/22 08:13:59;;;;;;;;;;;13.30;97.10;;;;;;5000377;28;19917;-67
2022/10/22 08:16:24;;;;;;;;;;;13.30;97.20;;;;;;4985035;28;19914;-67
2022/10/22 08:18:50;;;;;;;;;;;13.30;97.20;;;;;;4977906;28;20069;-67
2022/10/22 08:21:16;;;;;;;;;;;13.30;97.10;;;;;;4977442;28;19918;-67
2022/10/22 08:23:42;;;;;;;;;;;13.40;97.40;;;;;;4988221;28;20325;-67
2022/10/22 08:26:07;;;;;;;;;;;13.40;97.30;;;;;;4990432;28;19914;-67
2022/10/22 08:28:35;;;;;;;;;;;13.40;97.20;;;;;;5008193;28;19940;-67
2022/10/22 08:31:04;;;;;;;;;;;13.50;97.30;;;;;;4994073;28;20437;-67
2022/10/22 08:33:30;;;;;;;;;;;13.50;97.20;;;;;;5003332;28;20514;-67
2022/10/22 08:35:55;;;;;;;;;;;13.60;97.30;;;;;;4999659;28;19963;-67
2022/10/22 08:38:21;;;;;;;;;;;13.60;97.20;;;;;;4987510;28;19917;-67
2022/10/22 08:40:48;;;;;;;;;;;13.70;97.10;;;;;;4987202;28;20008;-67
2022/10/22 08:43:23;;;;;;;;;;;13.70;97.30;;;;;;4985559;28;20443;-67
2022/10/22 08:46:00;;;;;;;;;;;13.70;97.00;;;;;;4987270;28;19913;-67
2022/10/22 08:48:25;;;;;;;;;;;13.80;97.30;;;;;;4979754;28;20004;-67
2022/10/22 08:50:52;;;;;;;;;;;13.80;96.90;;;;;;4982708;28;20016;-67
2022/10/22 08:53:19;;;;;;;;;;;13.80;97.00;;;;;;4987542;28;19948;-67
2022/10/22 08:55:46;;;;;;;;;;;13.80;97.10;;;;;;4987104;28;19914;-67
2022/10/22 08:58:17;;;;;;;;;;;13.80;97.00;;;;;;5005512;28;19924;-67
2022/10/22 09:00:49;;;;;;;;;;;13.80;97.10;;;;;;5006089;28;19918;-67
2022/10/22 09:03:25;;;;;;;;;;;13.80;97.20;;;;;;5003933;28;20028;-67
2022/10/22 09:05:53;;;;;;;;;;;13.90;97.30;;;;;;4990097;28;19917;-67
2022/10/22 09:08:19;;;;;;;;;;;13.90;97.40;;;;;;4995196;28;19917;-67
2022/10/22 09:10:47;;;;;;;;;;;13.90;97.20;;;;;;5002033;28;19921;-67
2022/10/22 09:13:16;;;;;;;;;;;13.90;97.30;;;;;;5006482;28;19921;-67
2022/10/22 09:15:41;;;;;;;;;;;14.00;97.70;;;;;;5005232;28;19917;-67
2022/10/22 09:18:15;;;;;;;;;;;14.00;97.70;;;;;;4992839;28;19921;-67
2022/10/22 09:20:46;;;;;;;;;;;14.00;97.60;;;;;;4975935;28;20398;-67
2022/10/22 09:23:24;;;;;;;;;;;14.10;97.50;;;;;;4986690;28;19914;-67
2022/10/22 09:25:50;;;;;;;;;;;14.10;97.50;;;;;;5001092;28;19913;-68
2022/10/22 09:28:16;;;;;;;;;;;14.20;97.50;;;;;;4986591;28;20272;-68
2022/10/22 09:30:42;;;;;;;;;;;14.20;97.50;;;;;;4991765;28;19948;-68
2022/10/22 09:33:10;;;;;;;;;;;14.20;97.30;;;;;;5000420;28;20008;-68
2022/10/22 09:35:55;;;;;;;;;;;14.30;97.00;;;;;;5006136;28;19972;-68
2022/10/22 09:38:24;;;;;;;;;;;14.30;97.10;;;;;;4986733;28;19917;-68
2022/10/22 09:40:51;;;;;;;;;;;14.40;97.30;;;;;;4986707;28;19917;-67
2022/10/22 09:43:17;;;;;;;;;;;14.40;97.30;;;;;;4986560;28;19920;-68
2022/10/22 09:45:43;;;;;;;;;;;14.50;97.40;;;;;;4986657;28;19914;-68
2022/10/22 09:48:09;;;;;;;;;;;14.50;96.70;;;;;;4981862;28;19914;-67
2022/10/22 09:50:45;;;;;;;;;;;14.60;96.80;;;;;;4979835;28;20363;-68
2022/10/22 09:53:11;;;;;;;;;;;14.60;96.90;;;;;;4986608;28;20367;-68
2022/10/22 09:55:37;;;;;;;;;;;14.70;96.80;;;;;;4986167;28;19988;-68
2022/10/22 09:58:03;;;;;;;;;;;14.70;96.70;;;;;;4986970;28;20283;-68
2022/10/22 10:00:29;;;;;;;;;;;14.70;96.90;;;;;;4985924;28;19918;-68
2022/10/22 10:02:56;;;;;;;;;;;14.70;96.90;;;;;;4996435;28;19941;-68
2022/10/22 10:05:29;;;;;;;;;;;14.70;97.10;;;;;;5005815;28;19936;-68
2022/10/22 10:07:55;;;;;;;;;;;14.80;97.10;;;;;;5006034;28;19913;-67
2022/10/22 10:10:33;;;;;;;;;;;14.70;97.10;;;;;;4997275;28;19929;-68
2022/10/22 10:13:10;;;;;;;;;;;14.80;97.00;;;;;;4986186;28;19967;-68
2022/10/22 10:15:46;;;;;;;;;;;14.80;96.80;;;;;;4986365;28;19914;-68
2022/10/22 10:18:17;;;;;;;;;;;14.90;96.90;;;;;;4980971;28;19925;-68
2022/10/22 10:20:45;;;;;;;;;;;14.90;96.90;;;;;;4980046;28;20416;-68
2022/10/22 10:23:16;;;;;;;;;;;14.90;97.40;;;;;;4985848;28;19924;-68
2022/10/22 10:25:47;;;;;;;;;;;14.90;96.70;;;;;;4985711;28;19968;-68
2022/10/22 10:28:13;;;;;;;;;;;14.90;96.70;;;;;;4984826;28;19917;-68
2022/10/22 10:30:45;;;;;;;;;;;15.00;97.00;;;;;;4985210;28;20303;-68
2022/10/22 10:33:17;;;;;;;;;;;15.00;97.00;;;;;;4998567;28;19971;-68
2022/10/22 10:35:54;;;;;;;;;;;15.00;96.80;;;;;;5005766;28;20008;-68
2022/10/22 10:38:39;;;;;;;;;;;15.00;96.60;;;;;;5005277;28;19909;-68
2022/10/22 10:41:10;;;;;;;;;;;15.00;96.90;;;;;;5004611;28;19939;-69
2022/10/22 10:43:42;;;;;;;;;;;15.10;96.70;;;;;;4998017;28;19921;-68
2022/10/22 10:46:20;;;;;;;;;;;15.10;96.70;;;;;;4986027;28;20703;-69
2022/10/22 10:49:08;;;;;;;;;;;15.10;96.90;;;;;;4975192;28;19914;-69
2022/10/22 10:51:34;;;;;;;;;;;15.10;96.60;;;;;;4965283;28;20251;-68
2022/10/22 10:54:00;;;;;;;;;;;15.10;96.60;;;;;;4966501;28;19914;-69
2022/10/22 10:56:38;;;;;;;;;;;15.10;96.70;;;;;;4966351;28;19953;-68
2022/10/22 10:59:09;;;;;;;;;;;15.10;96.50;;;;;;4998476;28;20362;-68
2022/10/22 11:01:40;;;;;;;;;;;15.20;96.70;;;;;;4985131;28;19976;-68
2022/10/22 11:04:12;;;;;;;;;;;15.20;96.70;;;;;;5005385;28;19960;-68
2022/10/22 11:06:38;;;;;;;;;;;15.30;96.70;;;;;;5004727;28;19945;-68
2022/10/22 11:09:20;;;;;;;;;;;15.30;96.50;;;;;;5005020;28;20701;-68
2022/10/22 11:11:47;;;;;;;;;;;15.30;96.50;;;;;;5004947;28;19917;-68
2022/10/22 11:14:45;;;;;;;;;;;15.30;96.40;;;;;;5005117;28;20115;-68
2022/10/22 11:17:15;;;;;;;;;;;15.40;96.40;;;;;;4983125;28;19968;-68
2022/10/22 11:19:44;;;;;;;;;;;15.40;96.40;;;;;;4967994;28;20192;-68
2022/10/22 11:22:09;;;;;;;;;;;15.50;96.40;;;;;;4992900;28;20578;-68
2022/10/22 11:24:55;;;;;;;;;;;15.50;96.60;;;;;;5003227;28;19941;-68
2022/10/22 11:27:27;;;;;;;;;;;15.50;96.40;;;;;;4993048;28;19914;-69
2022/10/22 11:29:58;;;;;;;;;;;15.50;96.60;;;;;;4984070;28;19967;-68
2022/10/22 11:32:25;;;;;;;;;;;15.50;96.50;;;;;;4991127;28;19913;-69
2022/10/22 11:34:53;;;;;;;;;;;15.50;96.40;;;;;;4986513;28;20673;-68
2022/10/22 11:37:19;;;;;;;;;;;15.60;96.70;;;;;;4985249;28;20544;-68
2022/10/22 11:39:48;;;;;;;;;;;15.60;96.40;;;;;;4988573;28;19913;-68
2022/10/22 11:42:20;;;;;;;;;;;15.60;96.60;;;;;;4988600;28;19914;-68
2022/10/22 11:44:47;;;;;;;;;;;15.70;96.40;;;;;;4988024;28;19968;-68
2022/10/22 11:47:32;;;;;;;;;;;15.70;96.20;;;;;;4987950;28;19913;-68
2022/10/22 11:50:10;;;;;;;;;;;15.70;96.70;;;;;;4977074;28;19922;-69
2022/10/22 11:52:35;;;;;;;;;;;15.70;96.30;;;;;;4987751;28;19917;-68
2022/10/22 11:55:01;;;;;;;;;;;15.70;96.30;;;;;;4987726;28;19925;-68
2022/10/22 11:57:28;;;;;;;;;;;15.70;96.20;;;;;;4988259;28;19914;-68
2022/10/22 11:59:58;;;;;;;;;;;15.80;96.40;;;;;;4988116;28;19996;-68
2022/10/22 12:02:27;;;;;;;;;;;15.80;96.30;;;;;;4994252;28;20313;-69
2022/10/22 12:04:54;;;;;;;;;;;15.80;96.30;;;;;;4996910;28;20017;-69
2022/10/22 12:07:33;;;;;;;;;;;15.80;96.50;;;;;;4988023;28;20270;-69
2022/10/22 12:09:59;;;;;;;;;;;15.80;96.30;;;;;;4987088;28;19928;-68
2022/10/22 12:12:27;;;;;;;;;;;15.80;96.30;;;;;;4987870;28;19913;-69
2022/10/22 12:14:55;;;;;;;;;;;15.80;96.30;;;;;;4987859;28;19922;-68
2022/10/22 12:17:21;;;;;;;;;;;15.80;96.20;;;;;;4987705;28;19918;-68
2022/10/22 12:20:00;;;;;;;;;;;15.80;96.30;;;;;;4978864;28;19926;-68
2022/10/22 12:22:28;;;;;;;;;;;15.90;96.30;;;;;;4992916;28;19997;-69
2022/10/22 12:24:56;;;;;;;;;;;15.80;96.30;;;;;;4982039;28;20327;-69
2022/10/22 12:27:21;;;;;;;;;;;15.90;96.30;;;;;;4970863;28;19917;-69
2022/10/22 12:29:47;;;;;;;;;;;15.80;96.30;;;;;;4986594;28;20459;-68
2022/10/22 12:32:14;;;;;;;;;;;15.80;96.20;;;;;;4989444;28;19921;-69
2022/10/22 12:34:46;;;;;;;;;;;15.90;96.20;;;;;;4989089;28;19918;-69
2022/10/22 12:37:13;;;;;;;;;;;15.90;96.20;;;;;;4987475;28;19920;-69
2022/10/22 12:39:38;;;;;;;;;;;15.90;96.20;;;;;;4987023;28;19914;-69
2022/10/22 12:42:04;;;;;;;;;;;15.90;96.30;;;;;;4987358;28;19921;-69
2022/10/22 12:44:31;;;;;;;;;;;15.90;96.20;;;;;;4987171;28;20004;-69
2022/10/22 12:46:57;;;;;;;;;;;15.90;96.20;;;;;;4987364;28;19936;-68
2022/10/22 12:49:25;;;;;;;;;;;16.00;96.20;;;;;;4975175;28;20384;-68
2022/10/22 12:51:51;;;;;;;;;;;16.00;96.20;;;;;;4987516;28;19952;-68
2022/10/22 12:54:23;;;;;;;;;;;16.00;96.10;;;;;;4987635;28;19953;-68
2022/10/22 12:56:49;;;;;;;;;;;16.00;96.10;;;;;;4987021;28;19969;-69
2022/10/22 12:59:17;;;;;;;;;;;16.00;96.00;;;;;;4986671;28;19914;-68
2022/10/22 13:01:42;;;;;;;;;;;16.00;96.10;;;;;;4987548;28;19944;-69
2022/10/22 13:04:14;;;;;;;;;;;16.10;96.10;;;;;;4987487;28;20057;-69
2022/10/22 13:06:43;;;;;;;;;;;16.10;96.10;;;;;;4986532;28;19932;-68
2022/10/22 13:09:13;;;;;;;;;;;16.10;96.10;;;;;;4986930;28;19921;-70
2022/10/22 13:11:40;;;;;;;;;;;16.10;96.10;;;;;;4986784;28;19914;-68
2022/10/22 13:14:18;;;;;;;;;;;16.10;96.00;;;;;;4986793;28;19921;-68
2022/10/22 13:17:01;;;;;;;;;;;16.10;96.00;;;;;;4986308;28;20659;-68
2022/10/22 13:19:37;;;;;;;;;;;16.10;96.10;;;;;;4983048;28;20024;-68
2022/10/22 13:22:03;;;;;;;;;;;16.10;96.10;;;;;;4994746;28;19921;-68
2022/10/22 13:24:29;;;;;;;;;;;16.10;96.00;;;;;;4985361;28;19920;-68
2022/10/22 13:26:55;;;;;;;;;;;16.10;96.00;;;;;;4997012;28;19910;-68
2022/10/22 13:29:22;;;;;;;;;;;16.10;96.00;;;;;;4992385;28;20294;-68
2022/10/22 13:31:49;;;;;;;;;;;16.10;96.10;;;;;;4987669;28;20447;-68
2022/10/22 13:34:16;;;;;;;;;;;16.10;96.10;;;;;;5003691;28;19928;-68
2022/10/22 13:36:42;;;;;;;;;;;16.10;96.10;;;;;;4997023;28;19935;-68
2022/10/22 13:39:12;;;;;;;;;;;16.10;96.10;;;;;;4991092;28;19917;-68
2022/10/22 13:41:37;;;;;;;;;;;16.10;96.00;;;;;;4999382;28;20502;-69
2022/10/22 13:44:03;;;;;;;;;;;16.20;96.10;;;;;;4985867;28;19910;-68
2022/10/22 13:46:30;;;;;;;;;;;16.20;96.10;;;;;;4985813;28;19918;-69
2022/10/22 13:48:57;;;;;;;;;;;16.20;96.00;;;;;;4978826;28;20012;-69
2022/10/22 13:51:33;;;;;;;;;;;16.20;96.00;;;;;;4985717;28;20643;-68
2022/10/22 13:53:59;;;;;;;;;;;16.10;96.00;;;;;;4985838;28;19941;-69
2022/10/22 13:56:25;;;;;;;;;;;16.10;96.00;;;;;;4988613;28;19996;-69
2022/10/22 13:58:50;;;;;;;;;;;16.20;96.00;;;;;;4988874;28;19924;-68
2022/10/22 14:01:26;;;;;;;;;;;16.10;96.00;;;;;;4984928;28;19918;-68
2022/10/22 14:03:52;;;;;;;;;;;16.20;96.00;;;;;;5003842;28;19917;-68
2022/10/22 14:06:18;;;;;;;;;;;16.20;95.90;;;;;;5005126;28;19925;-68
2022/10/22 14:08:46;;;;;;;;;;;16.20;96.00;;;;;;5005189;28;20561;-68
2022/10/22 14:11:11;;;;;;;;;;;16.20;96.00;;;;;;5004527;28;19917;-69
2022/10/22 14:13:37;;;;;;;;;;;16.10;96.00;;;;;;5005236;28;19920;-69
2022/10/22 14:16:04;;;;;;;;;;;16.20;96.10;;;;;;5004824;28;20397;-68
2022/10/22 14:18:31;;;;;;;;;;;16.20;96.10;;;;;;4985597;28;20383;-68
2022/10/22 14:21:03;;;;;;;;;;;16.20;96.10;;;;;;4989059;28;20716;-69